Time;durP1;ratioP1;P1;durP2;ratioP2;P2;SDS_P1;SDS_P2;PMS_P1;PMS_P2;Temp;Humidity;BMP_temperature;BMP_pressure;BME280_temperature;BME280_humidity;BME280_pressure;Samples;Min_cycle;Max_cycle;Signal;HPM_P1;HPM_P2
2022/08/28 00:00:08;;;;;;;23.00;16.73;;;18.30;99.90;;;;;;5095365;28;20450;-72
2022/08/28 00:02:35;;;;;;;24.17;17.80;;;18.30;99.90;;;;;;5095423;28;20549;-73
2022/08/28 00:05:02;;;;;;;29.73;18.03;;;18.30;99.90;;;;;;5094948;28;20807;-72
2022/08/28 00:07:29;;;;;;;26.30;17.30;;;18.30;99.90;;;;;;5095211;28;20905;-72
2022/08/28 00:09:55;;;;;;;20.40;15.10;;;18.20;99.90;;;;;;5095313;28;20459;-73
2022/08/28 00:12:22;;;;;;;22.10;15.20;;;18.20;99.90;;;;;;5095102;28;20943;-72
2022/08/28 00:14:50;;;;;;;30.57;15.50;;;18.20;99.90;;;;;;5095240;28;20483;-72
2022/08/28 00:17:17;;;;;;;23.93;15.17;;;18.10;99.90;;;;;;5095476;28;20497;-72
2022/08/28 00:19:44;;;;;;;19.43;14.30;;;18.00;99.90;;;;;;5094977;28;20782;-72
2022/08/28 00:22:11;;;;;;;22.13;15.73;;;18.00;99.90;;;;;;5094637;28;20443;-72
2022/08/28 00:24:38;;;;;;;26.60;16.50;;;18.10;99.90;;;;;;5094584;28;20936;-72
2022/08/28 00:29:50;;;;;;;24.80;15.40;;;18.10;99.90;;;;;;5095590;28;20484;-72
2022/08/28 00:32:17;;;;;;;29.33;15.73;;;18.00;99.90;;;;;;5094783;28;20480;-72
2022/08/28 00:34:44;;;;;;;26.67;16.60;;;18.00;99.90;;;;;;5097436;28;20484;-72
2022/08/28 00:37:11;;;;;;;24.00;17.40;;;18.00;99.90;;;;;;5097596;28;20468;-73
2022/08/28 00:39:37;;;;;;;23.80;15.63;;;18.00;99.90;;;;;;5096706;28;20447;-73
2022/08/28 00:42:05;;;;;;;25.90;15.87;;;18.10;99.90;;;;;;5096358;28;20517;-73
2022/08/28 00:44:32;;;;;;;22.53;15.23;;;18.10;99.90;;;;;;5094791;28;20442;-72
2022/08/28 00:47:00;;;;;;;15.20;12.93;;;18.10;99.90;;;;;;5094266;28;20468;-72
2022/08/28 00:49:29;;;;;;;20.63;14.03;;;17.90;99.90;;;;;;5094916;28;20443;-72
2022/08/28 00:52:04;;;;;;;21.53;11.93;;;17.90;99.90;;;;;;5094743;28;20471;-73
2022/08/28 00:54:32;;;;;;;20.70;12.67;;;17.80;99.90;;;;;;5094215;28;20582;-73
2022/08/28 00:57:02;;;;;;;19.13;11.93;;;17.80;99.90;;;;;;5093918;28;20548;-73
2022/08/28 00:59:29;;;;;;;20.00;11.97;;;17.70;99.90;;;;;;5094394;28;20452;-73
2022/08/28 01:01:58;;;;;;;16.43;11.33;;;17.80;99.90;;;;;;5094041;28;20803;-74
2022/08/28 01:04:28;;;;;;;18.00;12.33;;;17.80;99.90;;;;;;5093952;28;20456;-74
2022/08/28 01:06:57;;;;;;;15.50;11.20;;;17.60;99.90;;;;;;5094004;28;20467;-76
2022/08/28 01:09:26;;;;;;;14.20;10.77;;;17.70;99.90;;;;;;5093789;28;20450;-72
2022/08/28 01:11:57;;;;;;;20.43;10.93;;;17.70;99.90;;;;;;5094065;28;20542;-72
2022/08/28 01:14:25;;;;;;;30.97;14.50;;;17.70;99.90;;;;;;5093913;28;20487;-73
2022/08/28 01:16:54;;;;;;;17.73;10.60;;;17.70;99.90;;;;;;5093287;28;20491;-73
2022/08/28 01:19:28;;;;;;;17.57;11.00;;;17.70;99.90;;;;;;5093971;28;20551;-73
2022/08/28 01:22:04;;;;;;;14.07;9.47;;;17.60;99.90;;;;;;5093967;28;20858;-73
2022/08/28 01:24:32;;;;;;;34.00;11.20;;;17.60;99.90;;;;;;5093877;28;20431;-73
2022/08/28 01:26:59;;;;;;;19.50;10.57;;;17.70;99.90;;;;;;5093737;28;20533;-72
2022/08/28 01:29:27;;;;;;;27.60;14.93;;;17.60;99.90;;;;;;5093900;28;20505;-73
2022/08/28 01:31:54;;;;;;;16.30;12.40;;;17.70;99.90;;;;;;5093800;28;20452;-74
2022/08/28 01:34:21;;;;;;;12.93;9.30;;;17.70;99.90;;;;;;5093989;28;20444;-74
2022/08/28 01:36:48;;;;;;;18.20;9.80;;;17.70;99.90;;;;;;5093874;28;20470;-74
2022/08/28 01:39:17;;;;;;;16.03;10.73;;;17.60;99.90;;;;;;5093964;28;20435;-76
2022/08/28 01:41:47;;;;;;;15.17;11.90;;;17.60;99.90;;;;;;5093935;28;20439;-75
2022/08/28 01:44:15;;;;;;;26.03;15.87;;;17.70;99.90;;;;;;5093934;28;20769;-74
2022/08/28 01:46:43;;;;;;;21.57;13.10;;;17.80;99.90;;;;;;5093748;28;20467;-75
2022/08/28 01:49:10;;;;;;;19.03;14.27;;;17.80;99.90;;;;;;5093972;28;20506;-75
2022/08/28 01:51:38;;;;;;;17.40;12.23;;;17.70;99.90;;;;;;5094209;28;20448;-75
2022/08/28 01:54:05;;;;;;;20.07;12.73;;;17.70;99.90;;;;;;5093601;28;20452;-74
2022/08/28 01:56:32;;;;;;;21.57;16.10;;;17.70;99.90;;;;;;5095260;28;21002;-75
2022/08/28 01:59:01;;;;;;;20.30;16.27;;;17.90;99.90;;;;;;5094257;28;20440;-75
2022/08/28 02:01:28;;;;;;;20.10;13.93;;;17.80;99.90;;;;;;5093810;28;20471;-76
2022/08/28 02:03:54;;;;;;;15.93;14.20;;;17.80;99.90;;;;;;5093911;28;20443;-76
2022/08/28 02:06:21;;;;;;;22.60;14.67;;;17.90;99.90;;;;;;5093979;28;20463;-75
2022/08/28 02:08:53;;;;;;;18.60;13.40;;;17.90;99.90;;;;;;5093372;28;20967;-75
2022/08/28 02:11:21;;;;;;;24.10;15.60;;;17.80;99.90;;;;;;5093557;28;20436;-75
2022/08/28 02:13:48;;;;;;;22.37;15.47;;;17.90;99.90;;;;;;5093427;28;20575;-75
2022/08/28 02:16:16;;;;;;;20.33;15.87;;;17.80;99.90;;;;;;5093524;28;20475;-74
2022/08/28 02:18:43;;;;;;;23.07;14.80;;;17.90;99.90;;;;;;5093290;28;20452;-75
2022/08/28 02:21:11;;;;;;;21.20;14.97;;;17.80;99.90;;;;;;5093036;28;20947;-74
2022/08/28 02:23:39;;;;;;;17.43;15.43;;;17.90;99.90;;;;;;5092845;28;20935;-75
2022/08/28 02:26:06;;;;;;;21.67;16.97;;;17.80;99.90;;;;;;5093711;28;20448;-75
2022/08/28 02:28:32;;;;;;;21.77;16.33;;;17.90;99.90;;;;;;5099871;28;20444;-74
2022/08/28 02:30:59;;;;;;;19.97;15.87;;;18.00;99.90;;;;;;5100125;28;20815;-73
2022/08/28 02:33:27;;;;;;;20.03;15.43;;;18.00;99.90;;;;;;5099919;28;20450;-74
2022/08/28 02:35:55;;;;;;;23.80;16.60;;;17.90;99.90;;;;;;5099956;28;20475;-75
2022/08/28 02:38:23;;;;;;;27.43;15.83;;;18.00;99.90;;;;;;5099786;28;20856;-74
2022/08/28 02:40:51;;;;;;;21.73;16.53;;;17.90;99.90;;;;;;5099813;28;20452;-74
2022/08/28 02:43:18;;;;;;;20.83;16.07;;;17.90;99.90;;;;;;5099805;28;20479;-74
2022/08/28 02:45:45;;;;;;;21.47;16.50;;;17.90;99.90;;;;;;5099827;28;20538;-74
2022/08/28 02:48:11;;;;;;;28.43;16.70;;;17.90;99.90;;;;;;5099539;28;20475;-74
2022/08/28 02:50:39;;;;;;;23.77;15.93;;;17.90;99.90;;;;;;5099769;28;20447;-74
2022/08/28 02:53:06;;;;;;;20.00;16.00;;;18.00;99.90;;;;;;5099825;28;20835;-74
2022/08/28 02:55:33;;;;;;;26.47;19.00;;;17.90;99.90;;;;;;5099839;28;20489;-74
2022/08/28 02:57:59;;;;;;;22.93;14.07;;;18.00;99.90;;;;;;5099337;28;20507;-73
2022/08/28 03:00:26;;;;;;;18.47;15.40;;;18.00;99.90;;;;;;5099684;28;20443;-75
2022/08/28 03:02:53;;;;;;;20.73;14.40;;;18.10;99.90;;;;;;5099722;28;20450;-74
2022/08/28 03:05:23;;;;;;;17.90;14.67;;;18.00;99.90;;;;;;5099614;28;20448;-74
2022/08/28 03:07:52;;;;;;;15.20;12.87;;;18.10;99.90;;;;;;5099621;28;20862;-74
2022/08/28 03:10:20;;;;;;;22.07;13.10;;;17.80;99.90;;;;;;5099711;28;20479;-73
2022/08/28 03:12:47;;;;;;;17.13;12.87;;;17.70;99.90;;;;;;5099587;28;20435;-73
2022/08/28 03:15:13;;;;;;;14.60;12.13;;;17.80;99.90;;;;;;5099781;28;20485;-74
2022/08/28 03:17:40;;;;;;;14.60;11.60;;;17.70;99.90;;;;;;5099550;28;20478;-73
2022/08/28 03:20:10;;;;;;;17.93;11.90;;;17.60;99.90;;;;;;5099193;28;20455;-74
2022/08/28 03:25:23;;;;;;;11.07;9.80;;;17.60;99.90;;;;;;5099666;28;20404;-73
2022/08/28 03:27:51;;;;;;;11.87;10.67;;;17.60;99.90;;;;;;5099498;28;20475;-73
2022/08/28 03:30:18;;;;;;;15.17;11.40;;;17.50;99.90;;;;;;5099876;28;20546;-74
2022/08/28 03:32:45;;;;;;;13.90;10.57;;;17.50;99.90;;;;;;5099796;28;20493;-74
2022/08/28 03:35:12;;;;;;;13.47;10.80;;;17.60;99.90;;;;;;5099343;28;20544;-74
2022/08/28 03:37:39;;;;;;;21.67;10.53;;;17.60;99.90;;;;;;5098663;28;20463;-74
2022/08/28 03:40:07;;;;;;;10.90;8.73;;;17.60;99.90;;;;;;5095632;28;20819;-74
2022/08/28 03:42:36;;;;;;;14.60;9.70;;;17.60;99.90;;;;;;5096066;28;20452;-74
2022/08/28 03:45:04;;;;;;;14.23;10.30;;;17.60;99.90;;;;;;5096078;28;20451;-74
2022/08/28 03:47:30;;;;;;;13.50;8.90;;;17.50;99.90;;;;;;5097034;28;20557;-74
2022/08/28 03:49:57;;;;;;;20.50;9.13;;;17.40;99.90;;;;;;5098224;28;20836;-74
2022/08/28 03:52:24;;;;;;;12.80;8.67;;;17.40;99.90;;;;;;5097704;28;20448;-74
2022/08/28 03:54:51;;;;;;;17.00;10.00;;;17.40;99.90;;;;;;5096132;28;20443;-75
2022/08/28 03:57:19;;;;;;;12.30;9.23;;;17.40;99.90;;;;;;5095505;28;20486;-74
2022/08/28 03:59:48;;;;;;;12.70;7.77;;;17.50;99.90;;;;;;5095811;28;20522;-74
2022/08/28 04:02:18;;;;;;;11.80;8.50;;;17.50;99.90;;;;;;5095693;28;20956;-75
2022/08/28 04:04:44;;;;;;;12.97;7.80;;;17.50;99.90;;;;;;5095650;28;20595;-73
2022/08/28 04:07:11;;;;;;;13.40;8.67;;;17.40;99.90;;;;;;5095727;28;20460;-73
2022/08/28 04:09:38;;;;;;;13.10;8.30;;;17.30;99.90;;;;;;5095559;28;20452;-73
2022/08/28 04:12:06;;;;;;;12.07;8.40;;;17.40;99.90;;;;;;5095513;28;20522;-73
2022/08/28 04:14:32;;;;;;;14.53;8.80;;;17.30;99.90;;;;;;5095595;28;20447;-73
2022/08/28 04:17:01;;;;;;;16.47;8.27;;;17.30;99.90;;;;;;5095288;28;20486;-74
2022/08/28 04:19:28;;;;;;;8.87;6.67;;;17.30;99.90;;;;;;5095388;28;20451;-74
2022/08/28 04:21:55;;;;;;;20.00;9.80;;;17.20;99.90;;;;;;5095018;28;20451;-73
2022/08/28 04:24:21;;;;;;;12.87;7.60;;;17.30;99.90;;;;;;5095302;28;20445;-74
2022/08/28 04:26:48;;;;;;;17.10;7.90;;;17.30;99.90;;;;;;5094819;28;20456;-73
2022/08/28 04:29:15;;;;;;;21.60;15.10;;;17.30;99.90;;;;;;5094871;28;20974;-74
2022/08/28 04:31:42;;;;;;;16.80;7.10;;;17.30;99.90;;;;;;5095139;28;20448;-73
2022/08/28 04:34:10;;;;;;;15.23;8.33;;;17.30;99.90;;;;;;5095112;28;20443;-73
2022/08/28 04:36:37;;;;;;;13.67;9.40;;;17.30;99.90;;;;;;5095048;28;20492;-74
2022/08/28 04:39:07;;;;;;;28.60;19.00;;;17.30;99.90;;;;;;5094748;28;20534;-73
2022/08/28 04:41:35;;;;;;;10.30;6.20;;;17.40;99.90;;;;;;5094663;28;20452;-74
2022/08/28 04:44:03;;;;;;;21.37;11.90;;;17.30;99.90;;;;;;5094619;28;20944;-73
2022/08/28 04:46:29;;;;;;;11.93;7.23;;;17.20;99.90;;;;;;5095165;28;20460;-73
2022/08/28 04:48:56;;;;;;;19.13;6.33;;;17.30;99.90;;;;;;5094680;28;20455;-74
2022/08/28 04:51:25;;;;;;;20.83;10.50;;;17.20;99.90;;;;;;5093733;28;20450;-73
2022/08/28 04:53:52;;;;;;;11.43;6.87;;;17.10;99.90;;;;;;5094781;28;20448;-73
2022/08/28 04:56:18;;;;;;;12.57;5.70;;;17.40;99.90;;;;;;5094341;28;20483;-73
2022/08/28 04:58:45;;;;;;;29.40;17.20;;;17.00;99.90;;;;;;5094334;28;20477;-73
2022/08/28 05:01:17;;;;;;;11.50;7.07;;;17.10;99.90;;;;;;5094603;28;20849;-73
2022/08/28 05:03:44;;;;;;;40.83;24.20;;;17.10;99.90;;;;;;5094536;28;20516;-73
2022/08/28 05:06:13;;;;;;;10.83;6.63;;;17.20;99.90;;;;;;5094669;28;20447;-74
2022/08/28 05:08:42;;;;;;;6.17;4.73;;;17.00;99.90;;;;;;5094611;28;20887;-74
2022/08/28 05:11:11;;;;;;;20.90;7.50;;;17.00;99.90;;;;;;5094474;28;20447;-73
2022/08/28 05:13:38;;;;;;;11.90;5.43;;;17.00;99.90;;;;;;5096986;28;20825;-73
2022/08/28 05:16:05;;;;;;;10.40;5.00;;;17.00;99.90;;;;;;5099506;28;20479;-73
2022/08/28 05:18:32;;;;;;;12.30;6.03;;;17.10;99.90;;;;;;5095151;28;20450;-74
2022/08/28 05:21:00;;;;;;;6.50;4.47;;;17.10;99.90;;;;;;5094437;28;20849;-74
2022/08/28 05:23:27;;;;;;;10.80;5.13;;;17.00;99.90;;;;;;5094638;28;20797;-74
2022/08/28 05:25:56;;;;;;;10.10;4.87;;;17.00;99.90;;;;;;5094101;28;20440;-74
2022/08/28 05:28:24;;;;;;;9.57;5.80;;;17.10;99.90;;;;;;5094092;28;20468;-74
2022/08/28 05:30:51;;;;;;;13.23;5.30;;;17.00;99.90;;;;;;5093653;28;20982;-74
2022/08/28 05:33:18;;;;;;;17.00;5.30;;;17.10;99.90;;;;;;5093965;28;20451;-74
2022/08/28 05:35:46;;;;;;;16.10;5.70;;;17.00;99.90;;;;;;5093833;28;20979;-74
2022/08/28 05:38:16;;;;;;;15.33;5.40;;;17.00;99.90;;;;;;5094067;28;20468;-74
2022/08/28 05:40:44;;;;;;;13.10;4.33;;;17.00;99.90;;;;;;5093486;28;20478;-74
2022/08/28 05:43:14;;;;;;;6.93;4.77;;;17.00;99.90;;;;;;5093832;28;20869;-73
2022/08/28 05:45:41;;;;;;;12.50;4.90;;;17.10;99.90;;;;;;5093824;28;20792;-73
2022/08/28 05:48:09;;;;;;;15.33;5.70;;;17.00;99.90;;;;;;5093647;28;20490;-73
2022/08/28 05:50:37;;;;;;;18.03;5.83;;;16.90;99.90;;;;;;5093676;28;20455;-72
2022/08/28 05:53:04;;;;;;;14.67;5.17;;;17.00;99.90;;;;;;5093544;28;21015;-72
2022/08/28 05:55:31;;;;;;;13.07;5.60;;;16.80;99.90;;;;;;5093430;28;20451;-72
2022/08/28 05:58:27;;;;;;;7.67;4.83;;;17.00;99.90;;;;;;5093184;28;20849;-72
2022/08/28 06:00:46;;;;;;;11.43;5.30;;;17.00;99.90;;;;;;5092889;28;20543;-72
2022/08/28 06:03:13;;;;;;;14.93;6.30;;;17.00;99.90;;;;;;5093268;28;20455;-72
2022/08/28 06:05:39;;;;;;;9.40;4.97;;;17.00;99.90;;;;;;5093626;28;20440;-72
2022/08/28 06:08:07;;;;;;;15.67;5.90;;;17.00;99.90;;;;;;5093299;28;20539;-72
2022/08/28 06:10:35;;;;;;;15.07;5.27;;;17.00;99.90;;;;;;5093293;28;20481;-72
2022/08/28 06:13:02;;;;;;;8.27;5.10;;;17.00;99.90;;;;;;5093167;28;20452;-72
2022/08/28 06:15:29;;;;;;;11.37;5.47;;;17.10;99.90;;;;;;5093748;28;20489;-72
2022/08/28 06:17:57;;;;;;;9.83;5.17;;;16.60;99.90;;;;;;5093356;28;20483;-73
2022/08/28 06:20:24;;;;;;;9.73;6.17;;;16.70;99.90;;;;;;5093634;28;20811;-73
2022/08/28 06:22:51;;;;;;;9.10;6.03;;;16.80;99.90;;;;;;5093277;28;20451;-73
2022/08/28 06:25:18;;;;;;;8.40;5.50;;;16.90;99.90;;;;;;5093185;28;20502;-74
2022/08/28 06:27:44;;;;;;;9.40;5.50;;;16.90;99.90;;;;;;5093584;28;20931;-73
2022/08/28 06:30:11;;;;;;;9.77;6.30;;;16.90;99.90;;;;;;5093354;28;20448;-73
2022/08/28 06:32:38;;;;;;;14.60;6.77;;;16.80;99.90;;;;;;5093447;28;20451;-73
2022/08/28 06:35:07;;;;;;;12.10;6.03;;;16.80;99.90;;;;;;5094454;28;20456;-72
2022/08/28 06:37:34;;;;;;;13.90;5.50;;;16.80;99.90;;;;;;5095455;28;20607;-72
2022/08/28 06:40:00;;;;;;;12.17;5.83;;;16.80;99.90;;;;;;5093692;28;20444;-72
2022/08/28 06:42:30;;;;;;;9.77;6.40;;;16.90;99.90;;;;;;5092721;28;20877;-72
2022/08/28 06:44:56;;;;;;;9.87;6.17;;;16.90;99.90;;;;;;5092838;28;20470;-72
2022/08/28 06:47:23;;;;;;;13.13;7.23;;;17.00;99.90;;;;;;5092841;28;20466;-72
2022/08/28 06:49:50;;;;;;;10.30;5.97;;;17.10;99.90;;;;;;5092816;28;20501;-72
2022/08/28 06:52:18;;;;;;;8.90;5.53;;;17.20;99.90;;;;;;5092752;28;20451;-72
2022/08/28 06:54:45;;;;;;;7.80;5.30;;;17.00;99.90;;;;;;5092839;28;20455;-72
2022/08/28 06:57:12;;;;;;;9.80;5.97;;;17.10;99.90;;;;;;5092522;28;20492;-74
2022/08/28 06:59:38;;;;;;;12.73;5.70;;;17.20;99.90;;;;;;5093368;28;20963;-74
2022/08/28 07:02:06;;;;;;;11.40;6.13;;;17.20;99.90;;;;;;5093732;28;20521;-75
2022/08/28 07:04:33;;;;;;;10.93;6.80;;;17.10;99.90;;;;;;5092762;28;20869;-74
2022/08/28 07:06:59;;;;;;;16.17;6.73;;;17.20;99.90;;;;;;5092437;28;20464;-74
2022/08/28 07:09:27;;;;;;;20.97;6.83;;;17.30;99.90;;;;;;5092736;28;20447;-74
2022/08/28 07:11:54;;;;;;;16.07;5.80;;;17.40;99.90;;;;;;5092669;28;20932;-74
2022/08/28 07:14:21;;;;;;;20.83;6.93;;;17.40;99.90;;;;;;5094935;28;20823;-74
2022/08/28 07:16:47;;;;;;;10.57;6.80;;;17.50;99.90;;;;;;5096739;28;20487;-74
2022/08/28 07:19:14;;;;;;;22.40;7.10;;;17.50;99.90;;;;;;5096536;28;20465;-74
2022/08/28 07:21:43;;;;;;;12.70;7.60;;;17.40;99.90;;;;;;5096591;28;20443;-74
2022/08/28 07:24:11;;;;;;;11.03;7.47;;;17.40;99.90;;;;;;5096366;28;20804;-74
2022/08/28 07:26:40;;;;;;;11.43;7.10;;;17.50;99.90;;;;;;5096260;28;20487;-74
2022/08/28 07:29:07;;;;;;;17.93;6.20;;;17.50;99.90;;;;;;5096750;28;20861;-74
2022/08/28 07:31:34;;;;;;;11.53;8.40;;;17.50;99.90;;;;;;5096002;28;20451;-74
2022/08/28 07:34:00;;;;;;;12.33;7.93;;;17.50;99.90;;;;;;5096225;28;20458;-74
2022/08/28 07:36:28;;;;;;;8.83;6.97;;;17.40;99.90;;;;;;5096160;28;20484;-74
2022/08/28 07:38:56;;;;;;;12.70;6.90;;;17.50;99.90;;;;;;5096151;28;20447;-75
2022/08/28 07:41:26;;;;;;;14.50;7.20;;;17.40;99.90;;;;;;5096254;28;20447;-74
2022/08/28 07:46:39;;;;;;;13.23;8.00;;;17.40;99.90;;;;;;5095758;28;20459;-73
2022/08/28 07:49:07;;;;;;;20.33;7.90;;;17.60;99.90;;;;;;5095916;28;20455;-72
2022/08/28 07:51:34;;;;;;;11.70;8.17;;;17.80;99.90;;;;;;5095793;28;20444;-72
2022/08/28 07:54:01;;;;;;;11.70;6.60;;;17.60;99.90;;;;;;5096017;28;20469;-72
2022/08/28 07:56:28;;;;;;;14.43;6.33;;;17.30;99.90;;;;;;5095581;28;20848;-73
2022/08/28 07:58:57;;;;;;;11.10;6.40;;;17.60;99.90;;;;;;5095741;28;20503;-72
2022/08/28 08:01:24;;;;;;;9.47;5.97;;;17.70;99.90;;;;;;5095447;28;20448;-72
2022/08/28 08:03:51;;;;;;;13.13;6.90;;;17.70;99.90;;;;;;5095116;28;20535;-72
2022/08/28 08:06:18;;;;;;;11.57;7.00;;;17.90;99.90;;;;;;5095005;28;20993;-72
2022/08/28 08:08:46;;;;;;;12.13;6.27;;;17.50;99.90;;;;;;5095424;28;20444;-72
2022/08/28 08:11:17;;;;;;;7.23;6.30;;;17.70;99.90;;;;;;5095490;28;20452;-72
2022/08/28 08:13:46;;;;;;;15.00;7.90;;;17.80;99.90;;;;;;5095464;28;20463;-73
2022/08/28 08:16:17;;;;;;;12.30;6.60;;;17.30;99.90;;;;;;5095060;28;20823;-72
2022/08/28 08:18:45;;;;;;;13.33;6.67;;;17.80;99.90;;;;;;5095411;28;20432;-72
2022/08/28 08:21:15;;;;;;;9.80;7.23;;;17.80;99.90;;;;;;5095165;28;20863;-73
2022/08/28 08:23:42;;;;;;;10.67;7.60;;;18.00;99.90;;;;;;5095317;28;20429;-72
2022/08/28 08:26:11;;;;;;;7.70;5.63;;;18.30;99.90;;;;;;5094491;28;20579;-73
2022/08/28 08:28:39;;;;;;;13.63;8.17;;;18.10;99.90;;;;;;5095111;28;20448;-75
2022/08/28 08:31:08;;;;;;;9.10;5.67;;;18.20;99.90;;;;;;5095213;28;20448;-73
2022/08/28 08:33:38;;;;;;;12.17;7.20;;;18.10;99.90;;;;;;5095865;28;20800;-74
2022/08/28 08:36:05;;;;;;;10.10;6.90;;;18.00;99.90;;;;;;5095126;28;20451;-74
2022/08/28 08:38:33;;;;;;;9.70;6.10;;;18.10;99.90;;;;;;5094768;28;20828;-74
2022/08/28 08:41:04;;;;;;;11.83;6.70;;;18.30;99.90;;;;;;5094506;28;20446;-75
2022/08/28 08:43:36;;;;;;;10.17;7.43;;;18.30;99.90;;;;;;5094887;28;20420;-74
2022/08/28 08:46:03;;;;;;;11.33;6.97;;;18.10;99.90;;;;;;5096357;28;20432;-74
2022/08/28 08:48:35;;;;;;;6.60;5.43;;;18.20;99.90;;;;;;5094780;28;20475;-73
2022/08/28 08:51:07;;;;;;;8.27;6.03;;;18.20;99.90;;;;;;5094964;28;20431;-75
2022/08/28 08:53:43;;;;;;;15.87;7.43;;;18.20;99.90;;;;;;5094572;28;20535;-73
2022/08/28 08:56:15;;;;;;;9.50;7.03;;;18.00;99.90;;;;;;5094292;28;20528;-72
2022/08/28 08:58:45;;;;;;;10.50;7.20;;;18.30;99.90;;;;;;5094216;28;20464;-72
2022/08/28 09:01:17;;;;;;;9.30;5.70;;;18.30;99.90;;;;;;5094517;28;20444;-72
2022/08/28 09:03:59;;;;;;;11.30;6.27;;;18.20;99.90;;;;;;5094555;28;20455;-72
2022/08/28 09:06:35;;;;;;;18.60;6.43;;;18.30;99.90;;;;;;5094755;28;20468;-72
2022/08/28 09:09:05;;;;;;;9.80;7.10;;;18.00;99.90;;;;;;5094512;28;20431;-73
2022/08/28 09:11:44;;;;;;;13.67;7.27;;;17.80;99.90;;;;;;5094496;28;20896;-72
2022/08/28 09:14:19;;;;;;;15.70;7.07;;;18.00;99.90;;;;;;5094405;28;20799;-72
2022/08/28 09:16:46;;;;;;;8.00;7.27;;;18.00;99.90;;;;;;5094247;28;20467;-73
2022/08/28 09:19:18;;;;;;;9.97;6.73;;;18.10;99.90;;;;;;5095260;28;20820;-72
2022/08/28 09:21:48;;;;;;;12.07;7.50;;;18.20;99.90;;;;;;5095600;28;20482;-72
2022/08/28 09:24:20;;;;;;;13.43;7.50;;;18.20;99.90;;;;;;5094376;28;20448;-72
2022/08/28 09:26:53;;;;;;;9.00;6.40;;;18.20;99.90;;;;;;5094009;28;20470;-72
2022/08/28 09:29:26;;;;;;;16.17;8.83;;;18.20;99.90;;;;;;5094611;28;20435;-73
2022/08/28 09:31:53;;;;;;;14.47;7.10;;;18.20;99.90;;;;;;5094099;28;20947;-72
2022/08/28 09:34:29;;;;;;;11.67;7.40;;;18.10;99.90;;;;;;5093932;28;20452;-72
2022/08/28 09:36:59;;;;;;;19.60;7.20;;;18.10;99.90;;;;;;5092802;28;20537;-73
2022/08/28 09:39:29;;;;;;;7.57;6.60;;;18.20;99.90;;;;;;5093504;28;20448;-72
2022/08/28 09:44:55;;;;;;;12.50;7.57;;;17.80;99.90;;;;;;5093428;28;20800;-73
2022/08/28 09:47:40;;;;;;;15.03;7.23;;;17.80;99.90;;;;;;5093278;28;20983;-74
2022/08/28 09:50:29;;;;;;;16.83;8.20;;;18.00;99.90;;;;;;5093565;28;20424;-73
2022/08/28 09:52:59;;;;;;;11.30;7.40;;;17.80;99.90;;;;;;5093616;28;20485;-73
2022/08/28 09:55:35;;;;;;;10.77;7.83;;;17.80;99.90;;;;;;5093602;28;20834;-73
2022/08/28 09:58:03;;;;;;;10.90;7.47;;;18.00;99.90;;;;;;5092784;28;20491;-73
2022/08/28 10:00:34;;;;;;;12.53;7.60;;;18.10;99.90;;;;;;5093304;28;20444;-73
2022/08/28 10:03:08;;;;;;;9.00;6.60;;;17.90;99.90;;;;;;5093457;28;20428;-74
2022/08/28 10:05:41;;;;;;;16.10;6.80;;;18.10;99.90;;;;;;5093213;28;20432;-73
2022/08/28 10:08:23;;;;;;;10.07;7.10;;;18.30;99.90;;;;;;5093417;28;20509;-73
2022/08/28 10:10:55;;;;;;;9.10;6.80;;;18.20;99.90;;;;;;5092989;28;20432;-73
2022/08/28 10:13:29;;;;;;;8.60;6.50;;;18.20;99.90;;;;;;5093640;28;20485;-73
2022/08/28 10:16:13;;;;;;;10.10;6.70;;;18.00;99.90;;;;;;5093603;28;20443;-73
2022/08/28 10:18:47;;;;;;;12.97;6.87;;;18.20;99.90;;;;;;5093150;28;20562;-73
2022/08/28 10:21:21;;;;;;;12.03;7.20;;;18.20;99.90;;;;;;5092820;28;20477;-73
2022/08/28 10:24:05;;;;;;;14.43;7.47;;;18.40;99.90;;;;;;5092713;28;20470;-73
2022/08/28 10:26:39;;;;;;;12.37;6.37;;;18.40;99.90;;;;;;5092496;28;20456;-73
2022/08/28 10:29:22;;;;;;;12.13;8.60;;;18.50;99.90;;;;;;5093870;28;20425;-74
2022/08/28 10:31:58;;;;;;;13.13;8.00;;;18.50;99.90;;;;;;5093455;28;20439;-73
2022/08/28 10:34:45;;;;;;;22.33;9.03;;;18.50;99.90;;;;;;5093571;28;20424;-73
2022/08/28 10:37:21;;;;;;;14.80;8.33;;;18.60;99.90;;;;;;5093197;28;20459;-73
2022/08/28 10:39:56;;;;;;;11.20;9.07;;;18.50;99.90;;;;;;5093188;28;20515;-72
2022/08/28 10:42:29;;;;;;;14.20;9.30;;;18.40;99.90;;;;;;5092916;28;20446;-73
2022/08/28 10:45:03;;;;;;;13.67;7.23;;;18.20;99.90;;;;;;5093376;28;20430;-73
2022/08/28 10:47:34;;;;;;;15.47;7.87;;;18.20;99.90;;;;;;5094281;28;20463;-73
2022/08/28 10:50:08;;;;;;;12.77;7.33;;;18.20;99.90;;;;;;5097336;28;20432;-73
2022/08/28 10:52:40;;;;;;;15.73;9.27;;;18.10;99.90;;;;;;5097323;28;20506;-73
2022/08/28 10:55:13;;;;;;;13.80;8.17;;;18.10;99.90;;;;;;5096982;28;20428;-72
2022/08/28 10:57:44;;;;;;;14.10;8.40;;;18.10;99.90;;;;;;5096951;28;20483;-72
2022/08/28 11:00:13;;;;;;;12.73;8.17;;;18.10;99.90;;;;;;5096865;28;20424;-73
2022/08/28 11:02:43;;;;;;;11.37;7.63;;;18.10;99.90;;;;;;5097173;28;20470;-72
2022/08/28 11:05:11;;;;;;;15.10;8.87;;;18.00;99.90;;;;;;5096950;28;20448;-72
2022/08/28 11:07:44;;;;;;;11.53;8.57;;;18.00;99.90;;;;;;5097044;28;20497;-73
2022/08/28 11:10:41;;;;;;;11.57;8.40;;;18.00;99.90;;;;;;5096815;28;20803;-72
2022/08/28 11:13:09;;;;;;;13.10;7.70;;;18.10;99.90;;;;;;5097914;28;20436;-72
2022/08/28 11:15:49;;;;;;;15.00;8.00;;;17.90;99.90;;;;;;5099745;28;20475;-74
2022/08/28 11:18:52;;;;;;;9.43;7.80;;;18.00;99.90;;;;;;5099476;28;20479;-73
2022/08/28 11:21:23;;;;;;;11.80;8.60;;;17.90;99.90;;;;;;5099865;28;20435;-75
2022/08/28 11:23:58;;;;;;;11.97;8.37;;;17.90;99.90;;;;;;5097266;28;20428;-74
2022/08/28 11:26:33;;;;;;;10.07;8.67;;;18.00;99.90;;;;;;5096805;28;20462;-73
2022/08/28 11:29:02;;;;;;;12.03;8.77;;;18.00;99.90;;;;;;5096453;28;20443;-74
2022/08/28 11:31:36;;;;;;;12.93;8.67;;;18.00;99.90;;;;;;5096746;28;20443;-74
2022/08/28 11:34:04;;;;;;;16.20;9.07;;;17.70;99.90;;;;;;5096530;28;20447;-73
2022/08/28 11:36:58;;;;;;;13.90;10.20;;;17.90;99.90;;;;;;5096264;28;20493;-73
2022/08/28 11:39:24;;;;;;;16.20;9.20;;;17.90;99.90;;;;;;5096242;28;20555;-73
2022/08/28 11:42:30;;;;;;;12.77;8.33;;;18.00;99.90;;;;;;5096401;28;20819;-74
2022/08/28 11:44:59;;;;;;;16.20;9.97;;;17.90;99.90;;;;;;5096447;28;20822;-73
2022/08/28 11:47:55;;;;;;;17.77;9.30;;;18.10;99.90;;;;;;5096212;28;20463;-74
2022/08/28 11:50:33;;;;;;;11.40;9.07;;;17.90;99.90;;;;;;5096403;28;20431;-74
2022/08/28 11:53:33;;;;;;;18.07;10.47;;;17.80;99.90;;;;;;5096164;28;20791;-74
2022/08/28 11:56:23;;;;;;;16.57;9.57;;;17.60;99.90;;;;;;5062392;28;20471;-75
2022/08/28 11:59:00;;;;;;;15.73;10.63;;;17.80;99.90;;;;;;5096477;28;20464;-73
2022/08/28 12:01:31;;;;;;;13.53;9.93;;;17.90;99.90;;;;;;5095940;28;20436;-73
2022/08/28 12:04:02;;;;;;;12.90;8.43;;;18.00;99.90;;;;;;5095885;28;20432;-76
2022/08/28 12:06:50;;;;;;;15.13;9.20;;;18.00;99.90;;;;;;5095770;28;20460;-76
2022/08/28 12:09:40;;;;;;;11.57;8.10;;;17.80;99.90;;;;;;5095647;28;20427;-76
2022/08/28 12:12:12;;;;;;;13.40;9.30;;;17.70;99.90;;;;;;5095478;28;20425;-76
2022/08/28 12:15:09;;;;;;;11.27;9.50;;;17.70;99.90;;;;;;5095769;28;20527;-75
2022/08/28 12:17:59;;;;;;;17.70;9.90;;;17.50;99.90;;;;;;5095483;28;20467;-76
2022/08/28 12:20:33;;;;;;;17.13;8.83;;;17.70;99.90;;;;;;5096121;28;20814;-77
2022/08/28 12:23:02;;;;;;;13.40;9.60;;;17.60;99.90;;;;;;5095372;28;20919;-76
2022/08/28 12:25:35;;;;;;;16.93;9.90;;;17.70;99.90;;;;;;5095958;28;20486;-77
2022/08/28 12:28:14;;;;;;;10.93;9.03;;;17.60;99.90;;;;;;5096039;28;21040;-75
2022/08/28 12:30:47;;;;;;;11.93;9.73;;;17.60;99.90;;;;;;5095457;28;20428;-73
2022/08/28 12:33:27;;;;;;;14.87;9.87;;;17.60;99.90;;;;;;5094978;28;20473;-74
2022/08/28 12:36:00;;;;;;;17.50;10.03;;;17.60;99.90;;;;;;5095290;28;20428;-74
2022/08/28 12:38:29;;;;;;;15.60;8.50;;;17.80;99.90;;;;;;5094941;28;20801;-74
2022/08/28 12:40:56;;;;;;;20.13;10.20;;;17.80;99.90;;;;;;5095193;28;20452;-73
2022/08/28 12:43:34;;;;;;;12.87;10.00;;;18.00;99.90;;;;;;5094874;28;20443;-71
2022/08/28 12:46:04;;;;;;;13.13;8.90;;;18.10;99.90;;;;;;5094990;28;20432;-73
2022/08/28 12:48:34;;;;;;;13.43;9.40;;;18.10;99.90;;;;;;5094686;28;20447;-76
2022/08/28 12:51:04;;;;;;;19.97;9.03;;;18.00;99.90;;;;;;5095883;28;20462;-77
2022/08/28 12:53:40;;;;;;;10.67;9.00;;;18.00;99.90;;;;;;5096190;28;20439;-77
2022/08/28 12:56:08;;;;;;;11.73;9.40;;;18.30;99.90;;;;;;5096616;28;20451;-78
2022/08/28 12:58:38;;;;;;;14.33;8.50;;;18.40;99.90;;;;;;5094495;28;21006;-77
2022/08/28 13:01:08;;;;;;;13.40;8.70;;;18.20;99.90;;;;;;5095883;28;20527;-75